createdAt,value
2018-02-15T09:54:59.439Z,58.10
2018-02-15T09:57:34.570Z,59.50
2018-02-15T10:00:08.824Z,59.70
2018-02-15T10:02:42.659Z,60.50
2018-02-15T10:05:17.046Z,63.70
2018-02-15T10:07:50.633Z,64.90
2018-02-15T10:10:24.739Z,65.00
2018-02-15T10:12:58.683Z,65.40
2018-02-15T10:15:32.832Z,69.70
2018-02-15T10:18:06.879Z,71.30
2018-02-15T10:20:41.791Z,69.40
2018-02-15T10:23:15.643Z,69.00
2018-02-15T10:25:50.235Z,69.60
2018-02-15T10:28:24.042Z,68.00
2018-02-15T10:30:57.766Z,68.30
2018-02-15T10:33:32.967Z,69.20
2018-02-15T10:36:07.127Z,68.90
2018-02-15T10:38:41.091Z,68.10
2018-02-15T10:41:15.831Z,67.70
2018-02-15T10:43:49.792Z,67.20
2018-02-15T10:46:23.750Z,66.60
2018-02-15T10:48:57.795Z,67.10
2018-02-15T10:51:31.835Z,66.40
2018-02-15T10:54:05.634Z,66.50
2018-02-15T10:56:39.627Z,66.40
2018-02-15T10:59:14.291Z,67.10
2018-02-15T11:01:48.202Z,67.00
2018-02-15T11:04:27.886Z,66.30
2018-02-15T11:07:02.201Z,65.90
2018-02-15T11:09:35.812Z,66.10
2018-02-15T11:12:09.679Z,66.60
2018-02-15T11:14:44.508Z,66.90
2018-02-15T11:17:18.641Z,66.80
2018-02-15T11:19:52.432Z,67.10
2018-02-15T11:22:26.371Z,67.30
2018-02-15T11:25:00.395Z,68.10
2018-02-15T11:27:34.431Z,69.10
2018-02-15T11:30:08.595Z,73.20
2018-02-15T11:32:42.565Z,74.40
2018-02-15T11:35:16.740Z,74.60
2018-02-15T11:37:51.135Z,72.00
2018-02-15T11:40:25.656Z,68.90
2018-02-15T11:42:59.883Z,68.40
2018-02-15T11:45:34.393Z,68.10
2018-02-15T11:48:08.995Z,68.00
2018-02-15T11:50:43.833Z,67.40
2018-02-15T11:53:17.798Z,66.80
2018-02-15T11:55:52.448Z,67.80
2018-02-15T11:58:26.872Z,67.30
2018-02-15T12:01:00.619Z,69.50
2018-02-15T12:03:34.481Z,71.20
2018-02-15T12:06:08.579Z,69.00
2018-02-15T12:08:42.554Z,69.80
2018-02-15T12:11:17.361Z,69.40
2018-02-15T12:13:51.473Z,69.30
2018-02-15T12:16:26.092Z,69.90
2018-02-15T12:19:00.346Z,70.00
2018-02-15T12:21:34.290Z,74.20
2018-02-15T12:24:08.942Z,72.00
2018-02-15T12:26:43.076Z,71.90
2018-02-15T12:29:17.881Z,74.40
2018-02-15T12:31:52.621Z,74.10
2018-02-15T12:34:27.549Z,73.70
2018-02-15T12:37:02.478Z,74.30
2018-02-15T12:39:36.512Z,74.30
2018-02-15T12:42:11.542Z,76.60
2018-02-15T12:44:46.853Z,78.80
2018-02-15T12:47:21.264Z,78.80
2018-02-15T12:49:55.103Z,81.20
2018-02-15T12:52:29.808Z,81.30
2018-02-15T12:55:03.459Z,81.40
2018-02-15T12:57:38.139Z,82.80
2018-02-15T13:00:12.191Z,82.80
2018-02-15T13:02:46.060Z,85.20
2018-02-15T13:05:19.791Z,84.30
2018-02-15T13:07:54.950Z,86.70
2018-02-15T13:10:28.718Z,86.50
2018-02-15T13:13:15.263Z,88.80
2018-02-15T13:19:08.633Z,88.30
2018-02-15T13:21:42.862Z,89.90
2018-02-15T13:24:17.395Z,90.00
2018-02-15T13:26:52.038Z,89.10
2018-02-15T13:29:25.891Z,88.90
2018-02-15T13:31:59.800Z,89.40
2018-02-15T13:34:33.587Z,88.50
2018-02-15T13:37:08.413Z,88.00
2018-02-15T13:39:42.334Z,86.50
2018-02-15T13:42:16.933Z,85.70
2018-02-15T13:44:50.877Z,85.40
2018-02-15T13:47:24.904Z,85.60
2018-02-15T13:49:58.745Z,85.30
2018-02-15T13:52:33.599Z,84.40
2018-02-15T13:55:07.586Z,83.90
2018-02-15T13:57:42.219Z,83.40
2018-02-15T14:00:16.111Z,83.40
2018-02-15T14:02:49.812Z,83.20
2018-02-15T14:05:23.577Z,83.30
2018-02-15T14:07:57.439Z,82.80
2018-02-15T14:10:31.289Z,81.80
2018-02-15T14:13:05.092Z,81.40
2018-02-15T14:15:39.160Z,81.90
2018-02-15T14:18:13.774Z,81.50
2018-02-15T14:20:48.550Z,81.90
2018-02-15T14:23:23.240Z,81.60
2018-02-15T14:25:57.104Z,81.10
2018-02-15T14:28:30.855Z,80.80
2018-02-15T14:31:05.394Z,80.40
2018-02-15T14:33:39.998Z,80.30
2018-02-15T14:36:13.854Z,79.80
2018-02-15T14:38:48.459Z,80.50
2018-02-15T14:41:23.275Z,80.30
2018-02-15T14:43:58.107Z,80.90
2018-02-15T14:46:33.314Z,81.00
2018-02-15T14:49:07.325Z,81.00
2018-02-15T14:51:41.247Z,80.50
2018-02-15T14:54:15.695Z,81.60
2018-02-15T14:56:49.606Z,81.60
2018-02-15T14:59:23.467Z,82.70
2018-02-15T15:01:57.203Z,80.90
2018-02-15T15:04:31.902Z,81.00
2018-02-15T15:07:05.629Z,80.30
2018-02-15T15:09:39.474Z,79.50
2018-02-15T15:12:14.035Z,79.60
2018-02-15T15:14:48.783Z,79.50
2018-02-15T15:17:22.604Z,79.50
2018-02-15T15:19:56.340Z,79.20
2018-02-15T15:22:30.825Z,79.10
2018-02-15T15:25:05.451Z,79.40
2018-02-15T15:27:39.368Z,78.70
2018-02-15T15:30:13.097Z,78.80
2018-02-15T15:32:46.694Z,79.00
2018-02-15T15:35:21.342Z,79.60
2018-02-15T15:37:55.297Z,79.00
2018-02-15T15:40:29.172Z,78.90
2018-02-15T15:43:03.610Z,80.00
2018-02-15T15:45:38.233Z,79.30
2018-02-15T15:48:12.087Z,79.80
2018-02-15T15:50:47.014Z,81.10
2018-02-15T15:53:21.184Z,83.70
2018-02-15T15:55:55.235Z,83.70
2018-02-15T15:58:29.829Z,83.50
2018-02-15T16:01:04.132Z,84.40
2018-02-15T16:03:38.954Z,84.40
2018-02-15T16:06:13.075Z,83.40
2018-02-15T16:08:46.863Z,84.00
2018-02-15T16:11:21.398Z,85.00
2018-02-15T16:13:55.264Z,84.40
2018-02-15T16:16:29.719Z,84.30
2018-02-15T16:19:03.602Z,84.10
2018-02-15T16:21:37.303Z,84.10
2018-02-15T16:24:11.867Z,84.40
2018-02-15T16:26:46.002Z,84.00
2018-02-15T16:29:19.848Z,84.10
2018-02-15T16:31:53.552Z,83.60
2018-02-15T16:34:27.915Z,84.60
2018-02-15T16:37:02.531Z,84.00
2018-02-15T16:39:36.575Z,84.00
2018-02-15T16:42:11.064Z,84.90
2018-02-15T16:44:45.008Z,84.90
2018-02-15T16:47:19.591Z,87.10
2018-02-15T16:49:53.576Z,86.60
2018-02-15T16:52:27.307Z,87.10
2018-02-15T16:55:01.150Z,86.80
2018-02-15T16:57:35.011Z,87.50
2018-02-15T17:00:08.613Z,86.80
2018-02-15T17:02:42.422Z,86.90
2018-02-15T17:05:16.477Z,86.20
2018-02-15T17:07:51.256Z,87.00
2018-02-15T17:10:25.362Z,87.00
2018-02-15T17:12:59.350Z,87.20
2018-02-15T17:15:33.175Z,87.00
2018-02-15T17:18:07.846Z,86.90
2018-02-15T17:20:41.703Z,86.40
2018-02-15T17:23:16.346Z,86.60
2018-02-15T17:25:50.556Z,86.10
2018-02-15T17:28:24.963Z,86.10
2018-02-15T17:30:58.864Z,85.60
2018-02-15T17:33:33.949Z,85.80
2018-02-15T17:36:08.290Z,85.60
2018-02-15T17:38:42.846Z,85.80
2018-02-15T17:41:16.713Z,85.30
2018-02-15T17:43:50.503Z,88.40
2018-02-15T17:46:24.250Z,86.00
2018-02-15T17:48:57.918Z,85.40
2018-02-15T17:51:31.620Z,85.80
2018-02-15T17:54:06.129Z,86.20
2018-02-15T17:56:40.766Z,86.30
2018-02-15T17:59:14.579Z,85.80
2018-02-15T18:01:48.348Z,86.30
2018-02-15T18:04:23.536Z,86.10
2018-02-15T18:06:57.692Z,86.60
2018-02-15T18:09:32.335Z,86.60
2018-02-15T18:12:06.350Z,86.00
2018-02-15T18:14:40.234Z,86.30
2018-02-15T18:17:15.287Z,86.60
2018-02-15T18:19:49.346Z,86.10
2018-02-15T18:22:23.245Z,86.50
2018-02-15T18:24:57.130Z,86.30
2018-02-15T18:27:31.647Z,86.20
2018-02-15T18:30:06.285Z,86.10
2018-02-15T18:32:40.198Z,86.10
2018-02-15T18:35:14.821Z,86.00
2018-02-15T18:37:48.907Z,85.40
2018-02-15T18:40:22.858Z,85.50
2018-02-15T18:42:57.530Z,86.70
2018-02-15T18:45:31.924Z,85.70
2018-02-15T18:48:06.284Z,85.70
2018-02-15T18:50:40.026Z,85.50
2018-02-15T18:53:13.837Z,85.80
2018-02-15T18:55:48.156Z,85.90
2018-02-15T18:58:22.665Z,86.00
2018-02-15T19:00:56.559Z,86.00
2018-02-15T19:03:30.439Z,85.90
2018-02-15T19:06:04.475Z,85.90
2018-02-15T19:08:38.927Z,85.90
2018-02-15T19:11:12.815Z,85.90
2018-02-15T19:13:47.001Z,86.10
2018-02-15T19:16:21.604Z,86.00
2018-02-15T19:18:56.357Z,86.50
2018-02-15T19:21:30.835Z,86.00
2018-02-15T19:24:04.348Z,86.00
2018-02-15T19:26:38.157Z,86.40
2018-02-15T19:29:11.965Z,85.90
2018-02-15T19:31:46.230Z,85.90
2018-02-15T19:34:19.975Z,86.00
2018-02-15T19:36:54.752Z,86.30
2018-02-15T19:39:28.770Z,85.80
2018-02-15T19:42:03.262Z,86.50
2018-02-15T19:44:37.958Z,85.90
2018-02-15T19:47:11.942Z,85.90
2018-02-15T19:49:45.720Z,86.50
2018-02-15T19:52:19.635Z,86.50
2018-02-15T19:54:53.554Z,86.60
2018-02-15T19:57:27.331Z,86.60
2018-02-15T20:00:01.230Z,86.80
2018-02-15T20:02:34.961Z,86.30
2018-02-15T20:05:08.856Z,86.40
2018-02-15T20:07:42.814Z,86.80
2018-02-15T20:10:16.589Z,86.90
2018-02-15T20:12:50.219Z,87.10
2018-02-15T20:15:24.894Z,87.60
2018-02-15T20:17:59.043Z,87.10
2018-02-15T20:20:33.498Z,87.70
2018-02-15T20:23:07.146Z,90.00
2018-02-15T20:25:41.849Z,88.10
2018-02-15T20:28:17.431Z,88.00
2018-02-15T20:30:52.150Z,88.00
2018-02-15T20:33:26.242Z,87.70
2018-02-15T20:36:00.295Z,87.70
2018-02-15T20:38:39.942Z,87.80
2018-02-15T20:43:50.163Z,88.80
2018-02-15T20:46:23.933Z,88.10
2018-02-15T20:48:58.272Z,88.60
2018-02-15T20:51:38.210Z,88.60
2018-02-15T20:54:17.590Z,88.50
2018-02-15T20:56:51.668Z,88.20
2018-02-15T20:59:25.510Z,88.00
2018-02-15T21:02:00.120Z,87.90
2018-02-15T21:04:34.920Z,88.80
2018-02-15T21:07:12.171Z,88.80
2018-02-15T21:09:46.033Z,89.00
2018-02-15T21:12:19.985Z,89.00
2018-02-15T21:14:53.903Z,89.10
2018-02-15T21:17:27.710Z,89.60
2018-02-15T21:20:01.463Z,90.90
2018-02-15T21:22:35.227Z,90.20
2018-02-15T21:25:08.807Z,90.10
2018-02-15T21:27:42.563Z,90.10
2018-02-15T21:30:17.281Z,90.40
2018-02-15T21:32:51.661Z,90.40
2018-02-15T21:35:25.312Z,90.60
2018-02-15T21:37:59.062Z,90.70
2018-02-15T21:40:32.694Z,90.80
2018-02-15T21:43:06.574Z,90.70
2018-02-15T21:45:40.628Z,91.00
2018-02-15T21:48:14.286Z,91.00
2018-02-15T21:50:48.215Z,91.40
2018-02-15T21:53:22.152Z,91.10
2018-02-15T21:55:55.843Z,92.20
2018-02-15T21:58:29.759Z,91.40
2018-02-15T22:01:03.347Z,91.50
2018-02-15T22:03:37.124Z,91.50
2018-02-15T22:06:11.638Z,91.40
2018-02-15T22:08:45.864Z,91.40
2018-02-15T22:11:19.757Z,91.40
2018-02-15T22:13:53.652Z,91.40
2018-02-15T22:16:27.430Z,91.30
2018-02-15T22:19:01.073Z,91.30
2018-02-15T22:21:34.595Z,91.30
2018-02-15T22:24:08.392Z,91.30
2018-02-15T22:26:42.241Z,91.30
2018-02-15T22:29:16.059Z,91.30
2018-02-15T22:31:50.493Z,91.20
2018-02-15T22:34:24.531Z,91.20
2018-02-15T22:36:58.389Z,91.20
2018-02-15T22:39:32.825Z,91.00
2018-02-15T22:42:06.698Z,91.00
2018-02-15T22:44:40.327Z,91.00
2018-02-15T22:47:14.772Z,90.80
2018-02-15T22:49:48.687Z,90.80
2018-02-15T22:52:22.361Z,90.80
2018-02-15T22:54:56.157Z,90.90
2018-02-15T22:57:30.102Z,90.90
2018-02-15T23:00:03.745Z,90.80
2018-02-15T23:02:38.492Z,90.70
2018-02-15T23:05:12.817Z,90.60
2018-02-15T23:07:47.246Z,90.30
2018-02-15T23:10:21.685Z,90.40
2018-02-15T23:12:55.906Z,90.30
2018-02-15T23:15:30.768Z,90.20
2018-02-15T23:18:04.850Z,90.20
2018-02-15T23:20:38.868Z,90.10
2018-02-15T23:23:12.990Z,90.20
2018-02-15T23:25:46.925Z,90.00
2018-02-15T23:28:21.206Z,89.90
2018-02-15T23:30:54.996Z,89.50
2018-02-15T23:33:28.720Z,89.60
2018-02-15T23:36:02.404Z,89.80
2018-02-15T23:38:36.060Z,89.70
2018-02-15T23:41:09.595Z,89.50
2018-02-15T23:43:43.378Z,89.60
2018-02-15T23:46:18.142Z,89.10
2018-02-15T23:48:51.852Z,89.10
2018-02-15T23:51:25.611Z,89.30
2018-02-15T23:53:59.497Z,88.50
2018-02-15T23:56:34.049Z,89.00
2018-02-15T23:59:08.086Z,88.80
